createdAt,value
2022-10-15T00:01:52.623Z,51.70
2022-10-15T00:04:21.483Z,54.30
2022-10-15T00:06:50.215Z,57.40
2022-10-15T00:09:20.518Z,52.00
2022-10-15T00:11:49.566Z,53.20
2022-10-15T00:14:18.836Z,50.03
2022-10-15T00:16:47.719Z,57.53
2022-10-15T00:19:16.610Z,48.87
2022-10-15T00:21:45.141Z,50.77
2022-10-15T00:24:13.956Z,56.20
2022-10-15T00:26:44.243Z,52.17
2022-10-15T00:29:14.141Z,52.67
2022-10-15T00:31:43.123Z,55.63
2022-10-15T00:34:12.449Z,56.20
2022-10-15T00:36:41.269Z,54.70
2022-10-15T00:39:10.158Z,55.60
2022-10-15T00:41:43.049Z,54.37
2022-10-15T00:44:50.338Z,59.73
2022-10-15T00:47:24.445Z,54.03
2022-10-15T00:49:58.903Z,57.90
2022-10-15T00:52:34.261Z,53.70
2022-10-15T00:55:10.326Z,56.93
2022-10-15T00:57:40.270Z,55.87
2022-10-15T01:00:16.581Z,49.87
2022-10-15T01:02:46.155Z,58.03
2022-10-15T01:05:16.939Z,50.93
2022-10-15T01:07:46.288Z,50.93
2022-10-15T01:10:21.783Z,49.70
2022-10-15T01:12:58.967Z,49.03
2022-10-15T01:15:35.163Z,41.87
2022-10-15T01:18:10.396Z,41.30
2022-10-15T01:20:51.870Z,43.40
2022-10-15T01:24:02.919Z,41.47
2022-10-15T01:27:09.404Z,40.63
2022-10-15T01:30:06.316Z,43.20
2022-10-15T01:32:45.166Z,41.47
2022-10-15T01:35:30.247Z,39.13
2022-10-15T01:38:12.633Z,38.00
2022-10-15T01:40:50.606Z,36.77
2022-10-15T01:43:25.037Z,37.50
2022-10-15T01:46:18.065Z,43.47
2022-10-15T01:49:06.261Z,36.43
2022-10-15T01:51:38.525Z,39.47
2022-10-15T01:54:11.947Z,37.93
2022-10-15T01:56:42.033Z,37.63
2022-10-15T01:59:12.199Z,38.30
2022-10-15T02:01:44.955Z,37.77
2022-10-15T02:04:23.966Z,38.47
2022-10-15T02:07:02.531Z,44.23
2022-10-15T02:09:42.113Z,46.73
2022-10-15T02:12:21.491Z,47.67
2022-10-15T02:14:57.813Z,50.30
2022-10-15T02:17:33.247Z,47.67
2022-10-15T02:20:08.398Z,53.13
2022-10-15T02:22:42.346Z,52.17
2022-10-15T02:25:15.481Z,55.97
2022-10-15T02:27:46.989Z,53.27
2022-10-15T02:30:18.330Z,52.73
2022-10-15T02:32:53.373Z,59.07
2022-10-15T02:35:26.173Z,52.47
2022-10-15T02:37:57.425Z,57.03
2022-10-15T02:40:31.151Z,61.33
2022-10-15T02:43:01.369Z,59.70
2022-10-15T02:45:29.900Z,60.70
2022-10-15T02:47:59.055Z,61.07
2022-10-15T02:50:29.510Z,64.17
2022-10-15T02:52:58.327Z,63.40
2022-10-15T02:55:27.158Z,67.03
2022-10-15T02:57:55.752Z,67.90
2022-10-15T03:00:24.911Z,74.97
2022-10-15T03:02:54.682Z,67.50
2022-10-15T03:05:23.647Z,63.07
2022-10-15T03:07:54.164Z,65.57
2022-10-15T03:10:23.743Z,60.73
2022-10-15T03:12:52.370Z,57.70
2022-10-15T03:15:21.624Z,61.30
2022-10-15T03:17:50.494Z,55.77
2022-10-15T03:20:21.350Z,54.13
2022-10-15T03:22:50.727Z,52.03
2022-10-15T03:25:22.368Z,57.47
2022-10-15T03:28:00.493Z,52.93
2022-10-15T03:30:37.641Z,58.07
2022-10-15T03:33:07.882Z,58.67
2022-10-15T03:35:37.834Z,55.97
2022-10-15T03:38:07.766Z,58.87
2022-10-15T03:40:40.838Z,65.23
2022-10-15T03:43:20.140Z,66.73
2022-10-15T03:45:49.203Z,66.07
2022-10-15T03:48:23.024Z,66.90
2022-10-15T03:50:51.749Z,63.83
2022-10-15T03:53:21.881Z,57.63
2022-10-15T03:55:53.583Z,55.90
2022-10-15T03:58:22.435Z,50.00
2022-10-15T04:00:56.946Z,47.63
2022-10-15T04:03:26.781Z,50.27
2022-10-15T04:05:56.767Z,50.30
2022-10-15T04:08:29.790Z,55.73
2022-10-15T04:11:00.870Z,51.30
2022-10-15T04:13:30.624Z,50.77
2022-10-15T04:15:59.517Z,49.60
2022-10-15T04:18:29.316Z,52.57
2022-10-15T04:21:00.490Z,55.33
2022-10-15T04:23:30.787Z,50.30
2022-10-15T04:26:19.524Z,55.50
2022-10-15T04:28:49.461Z,48.70
2022-10-15T04:31:20.329Z,52.60
2022-10-15T04:33:50.423Z,49.03
2022-10-15T04:36:19.320Z,50.57
2022-10-15T04:38:54.318Z,46.67
2022-10-15T04:41:38.126Z,48.60
2022-10-15T04:44:11.685Z,54.53
2022-10-15T04:46:41.645Z,52.57
2022-10-15T04:49:24.908Z,48.47
2022-10-15T04:51:54.185Z,48.77
2022-10-15T04:54:31.088Z,50.13
2022-10-15T04:57:06.793Z,50.10
2022-10-15T04:59:37.133Z,48.83
2022-10-15T05:02:40.569Z,45.97
2022-10-15T05:05:41.426Z,46.27
2022-10-15T05:08:10.896Z,48.63
2022-10-15T05:11:01.929Z,49.00
2022-10-15T05:13:33.902Z,46.97
2022-10-15T05:16:12.020Z,41.00
2022-10-15T05:18:45.983Z,42.77
2022-10-15T05:21:15.923Z,39.97
2022-10-15T05:23:47.304Z,42.87
2022-10-15T05:26:27.749Z,40.97
2022-10-15T05:28:59.834Z,43.87
2022-10-15T05:31:33.621Z,40.70
2022-10-15T05:34:15.907Z,39.47
2022-10-15T05:36:53.806Z,42.77
2022-10-15T05:39:23.110Z,42.57
2022-10-15T05:41:53.599Z,41.70
2022-10-15T05:44:31.828Z,45.27
2022-10-15T05:47:01.057Z,43.87
2022-10-15T05:49:30.767Z,41.50
2022-10-15T05:52:07.862Z,40.57
2022-10-15T05:55:06.584Z,40.87
2022-10-15T05:57:35.389Z,41.90
2022-10-15T06:00:09.160Z,40.03
2022-10-15T06:02:41.302Z,39.63
2022-10-15T06:05:10.604Z,35.83
2022-10-15T06:07:39.986Z,35.77
2022-10-15T06:10:09.426Z,35.23
2022-10-15T06:12:39.244Z,32.13
2022-10-15T06:15:11.416Z,31.33
2022-10-15T06:17:39.962Z,33.03
2022-10-15T06:20:09.220Z,31.13
2022-10-15T06:22:38.259Z,32.07
2022-10-15T06:25:08.123Z,33.37
2022-10-15T06:27:36.648Z,28.87
2022-10-15T06:30:05.977Z,32.17
2022-10-15T06:32:36.048Z,31.67
2022-10-15T06:35:04.843Z,30.93
2022-10-15T06:37:35.269Z,36.07
2022-10-15T06:40:03.839Z,30.77
2022-10-15T06:42:32.989Z,31.80
2022-10-15T06:45:01.562Z,33.50
2022-10-15T06:47:30.064Z,33.20
2022-10-15T06:50:00.615Z,31.80
2022-10-15T06:52:31.058Z,31.23
2022-10-15T06:55:00.072Z,29.80
2022-10-15T06:57:28.889Z,26.63
2022-10-15T06:59:57.549Z,27.90
2022-10-15T07:02:26.422Z,23.87
2022-10-15T07:04:55.401Z,24.00
2022-10-15T07:07:26.348Z,25.13
2022-10-15T07:09:55.448Z,26.40
2022-10-15T07:12:25.690Z,24.10
2022-10-15T07:14:54.558Z,23.70
2022-10-15T07:17:23.080Z,28.77
2022-10-15T07:19:51.678Z,27.70
2022-10-15T07:22:20.148Z,31.20
2022-10-15T07:24:49.934Z,28.37
2022-10-15T07:27:19.308Z,31.27
2022-10-15T07:29:48.311Z,26.53
2022-10-15T07:32:16.861Z,32.57
2022-10-15T07:34:45.324Z,29.70
2022-10-15T07:37:13.879Z,27.43
2022-10-15T07:39:42.373Z,26.60
2022-10-15T07:44:41.617Z,25.57
2022-10-15T07:47:11.700Z,25.63
2022-10-15T07:49:40.295Z,27.23
2022-10-15T07:52:09.439Z,23.03
2022-10-15T07:54:38.542Z,24.27
2022-10-15T07:57:08.506Z,25.67
2022-10-15T07:59:38.349Z,24.97
2022-10-15T08:02:07.214Z,22.13
2022-10-15T08:04:36.325Z,23.20
2022-10-15T08:07:06.888Z,24.10
2022-10-15T08:09:38.270Z,24.60
2022-10-15T08:12:07.688Z,23.17
2022-10-15T08:14:38.659Z,24.40
2022-10-15T08:17:08.081Z,26.50
2022-10-15T08:19:36.767Z,27.10
2022-10-15T08:22:05.643Z,25.50
2022-10-15T08:24:34.161Z,24.83
2022-10-15T08:27:02.718Z,23.40
2022-10-15T08:29:31.264Z,26.87
2022-10-15T08:32:01.192Z,27.23
2022-10-15T08:34:32.324Z,25.00
2022-10-15T08:37:00.930Z,27.27
2022-10-15T08:39:29.515Z,26.73
2022-10-15T08:42:02.957Z,26.20
2022-10-15T08:44:41.919Z,27.30
2022-10-15T08:47:25.777Z,27.23
2022-10-15T08:49:56.364Z,27.70
2022-10-15T08:52:30.969Z,24.77
2022-10-15T08:55:02.524Z,26.70
2022-10-15T08:57:39.886Z,26.83
2022-10-15T09:00:17.174Z,26.90
2022-10-15T09:02:53.208Z,27.37
2022-10-15T09:05:34.604Z,25.40
2022-10-15T09:08:11.442Z,29.97
2022-10-15T09:10:47.606Z,24.00
2022-10-15T09:13:24.916Z,26.10
2022-10-15T09:15:59.013Z,26.43
2022-10-15T09:18:31.848Z,25.10
2022-10-15T09:21:03.151Z,23.63
2022-10-15T09:23:35.282Z,26.17
2022-10-15T09:26:11.334Z,28.57
2022-10-15T09:28:47.836Z,28.40
2022-10-15T09:31:24.332Z,27.87
2022-10-15T09:34:00.987Z,27.23
2022-10-15T09:36:38.188Z,23.73
2022-10-15T09:39:32.458Z,23.73
2022-10-15T09:42:15.268Z,32.03
2022-10-15T09:44:48.912Z,31.80
2022-10-15T09:47:23.851Z,24.53
2022-10-15T09:49:56.943Z,24.23
2022-10-15T09:52:37.475Z,23.10
2022-10-15T09:55:16.922Z,27.73
2022-10-15T09:57:52.876Z,27.97
2022-10-15T10:00:22.076Z,40.23
2022-10-15T10:03:07.138Z,38.10
2022-10-15T10:05:39.137Z,28.07
2022-10-15T10:08:18.863Z,23.75
2022-10-15T10:10:55.877Z,24.50
2022-10-15T10:13:26.537Z,27.08
2022-10-15T10:15:58.965Z,33.05
2022-10-15T10:18:28.638Z,23.73
2022-10-15T10:21:01.653Z,32.22
2022-10-15T10:23:34.868Z,26.98
2022-10-15T10:26:05.508Z,45.88
2022-10-15T10:28:40.575Z,28.80
2022-10-15T10:31:13.123Z,32.95
2022-10-15T10:33:47.760Z,30.58
2022-10-15T10:36:29.576Z,34.47
2022-10-15T10:39:02.869Z,28.10
2022-10-15T10:41:51.935Z,27.45
2022-10-15T10:44:23.752Z,25.05
2022-10-15T10:47:12.272Z,24.98
2022-10-15T10:49:42.672Z,23.15
2022-10-15T10:52:26.514Z,25.98
2022-10-15T10:55:00.921Z,25.35
2022-10-15T10:57:41.503Z,29.30
2022-10-15T11:00:17.267Z,25.02
2022-10-15T11:02:51.085Z,24.17
2022-10-15T11:05:28.799Z,26.27
2022-10-15T11:08:08.014Z,35.30
2022-10-15T11:10:44.703Z,23.52
2022-10-15T11:13:35.183Z,22.58
2022-10-15T11:16:09.269Z,24.77
2022-10-15T11:18:55.061Z,23.95
2022-10-15T11:21:36.804Z,24.35
2022-10-15T11:24:14.315Z,20.52
2022-10-15T11:27:10.796Z,24.58
2022-10-15T11:29:52.587Z,24.77
2022-10-15T11:32:42.438Z,26.10
2022-10-15T11:35:54.266Z,26.55
2022-10-15T11:38:33.687Z,28.13
2022-10-15T11:41:27.428Z,27.20
2022-10-15T11:44:20.097Z,24.83
2022-10-15T11:46:57.560Z,29.52
2022-10-15T11:49:38.057Z,23.67
2022-10-15T11:52:24.384Z,24.13
2022-10-15T11:55:03.512Z,21.45
2022-10-15T11:57:36.852Z,21.58
2022-10-15T12:00:15.278Z,21.15
2022-10-15T12:02:47.739Z,24.58
2022-10-15T12:05:20.677Z,26.35
2022-10-15T12:07:51.122Z,21.80
2022-10-15T12:10:38.745Z,23.05
2022-10-15T12:13:16.532Z,20.52
2022-10-15T12:15:52.745Z,23.55
2022-10-15T12:18:29.123Z,22.92
2022-10-15T12:20:58.659Z,19.33
2022-10-15T12:23:41.834Z,17.63
2022-10-15T12:26:32.045Z,16.70
2022-10-15T12:29:06.091Z,20.83
2022-10-15T12:31:49.495Z,193.13
2022-10-15T12:34:31.436Z,24.08
2022-10-15T12:37:06.591Z,11.23
2022-10-15T12:39:53.008Z,9.02
2022-10-15T12:42:25.274Z,14.57
2022-10-15T12:44:56.187Z,6.85
2022-10-15T12:47:50.800Z,8.85
2022-10-15T12:50:21.924Z,7.35
2022-10-15T12:53:01.706Z,9.63
2022-10-15T12:55:33.376Z,12.70
2022-10-15T12:58:34.981Z,12.15
2022-10-15T13:01:27.885Z,11.93
2022-10-15T13:04:01.212Z,14.57
2022-10-15T13:06:35.673Z,15.57
2022-10-15T13:09:17.724Z,14.25
2022-10-15T13:11:49.139Z,16.40
2022-10-15T13:14:27.723Z,21.23
2022-10-15T13:16:59.559Z,15.70
2022-10-15T13:19:31.407Z,20.40
2022-10-15T13:22:03.383Z,21.42
2022-10-15T13:24:43.062Z,18.35
2022-10-15T13:27:22.452Z,18.15
2022-10-15T13:30:01.723Z,17.85
2022-10-15T13:32:34.930Z,16.80
2022-10-15T13:35:11.231Z,18.85
2022-10-15T13:37:42.258Z,15.75
2022-10-15T13:40:21.570Z,18.00
2022-10-15T13:43:00.278Z,17.60
2022-10-15T13:45:29.525Z,17.20
2022-10-15T13:47:59.590Z,18.27
2022-10-15T13:50:30.437Z,17.27
2022-10-15T13:53:01.792Z,16.83
2022-10-15T13:55:33.555Z,20.13
2022-10-15T13:58:05.158Z,17.38
2022-10-15T14:00:35.918Z,19.85
2022-10-15T14:03:19.709Z,19.52
2022-10-15T14:05:49.518Z,18.83
2022-10-15T14:08:20.973Z,17.33
2022-10-15T14:10:51.126Z,20.13
2022-10-15T14:13:19.709Z,35.53
2022-10-15T14:15:53.589Z,20.20
2022-10-15T14:18:35.350Z,21.92
2022-10-15T14:21:04.864Z,20.38
2022-10-15T14:23:33.462Z,21.70
2022-10-15T14:26:04.219Z,20.80
2022-10-15T14:28:35.144Z,21.95
2022-10-15T14:31:03.972Z,20.90
2022-10-15T14:33:42.101Z,26.35
2022-10-15T14:36:15.409Z,22.13
2022-10-15T14:38:43.998Z,21.88
2022-10-15T14:41:29.950Z,20.90
2022-10-15T14:44:03.651Z,22.80
2022-10-15T14:46:38.563Z,28.63
2022-10-15T14:49:20.176Z,63.00
2022-10-15T14:51:59.195Z,53.00
2022-10-15T14:54:35.376Z,59.72
2022-10-15T14:57:05.426Z,57.92
2022-10-15T14:59:38.314Z,38.65
2022-10-15T15:02:15.128Z,36.47
2022-10-15T15:04:48.099Z,30.33
2022-10-15T15:07:19.699Z,26.08
2022-10-15T15:09:52.151Z,45.15
2022-10-15T15:12:26.956Z,41.05
2022-10-15T15:14:56.553Z,33.88
2022-10-15T15:17:26.436Z,32.63
2022-10-15T15:19:58.670Z,43.50
2022-10-15T15:22:30.340Z,43.53
2022-10-15T15:25:01.199Z,116.50
2022-10-15T15:27:37.054Z,45.60
2022-10-15T15:30:07.343Z,23.23
2022-10-15T15:32:36.001Z,25.70
2022-10-15T15:35:18.203Z,22.52
2022-10-15T15:37:46.905Z,21.40
2022-10-15T15:40:15.548Z,25.35
2022-10-15T15:42:45.027Z,21.17
2022-10-15T15:45:21.173Z,18.48
2022-10-15T15:47:49.996Z,20.80
2022-10-15T15:50:21.849Z,23.10
2022-10-15T15:52:50.409Z,27.53
2022-10-15T15:55:18.894Z,28.23
2022-10-15T15:57:48.063Z,86.28
2022-10-15T16:00:17.065Z,21.08
2022-10-15T16:02:46.015Z,22.20
2022-10-15T16:05:16.057Z,14.95
2022-10-15T16:07:46.231Z,16.77
2022-10-15T16:10:14.814Z,9.47
2022-10-15T16:12:44.639Z,5.20
2022-10-15T16:15:14.800Z,7.43
2022-10-15T16:17:44.269Z,7.27
2022-10-15T16:20:13.411Z,8.03
2022-10-15T16:22:42.728Z,6.03
2022-10-15T16:25:12.830Z,6.70
2022-10-15T16:27:41.295Z,7.03
2022-10-15T16:30:11.074Z,6.93
2022-10-15T16:32:39.549Z,7.90
2022-10-15T16:35:09.058Z,6.47
2022-10-15T16:37:37.552Z,8.60
2022-10-15T16:40:07.124Z,9.00
2022-10-15T16:42:36.935Z,10.03
2022-10-15T16:45:06.335Z,7.17
2022-10-15T16:47:34.851Z,8.40
2022-10-15T16:50:03.404Z,11.20
2022-10-15T16:52:31.987Z,11.43
2022-10-15T16:55:00.504Z,10.70
2022-10-15T16:57:29.081Z,9.30
2022-10-15T16:59:59.019Z,12.40
2022-10-15T17:02:27.727Z,10.47
2022-10-15T17:04:56.598Z,11.20
2022-10-15T17:07:25.318Z,10.43
2022-10-15T17:09:54.039Z,12.37
2022-10-15T17:12:23.402Z,10.47
2022-10-15T17:14:52.470Z,20.57
2022-10-15T17:17:22.329Z,19.20
2022-10-15T17:19:51.201Z,16.33
2022-10-15T17:22:21.041Z,12.23
2022-10-15T17:24:52.540Z,14.55
2022-10-15T17:27:21.512Z,14.43
2022-10-15T17:29:49.987Z,12.87
2022-10-15T17:32:18.548Z,13.13
2022-10-15T17:34:48.430Z,14.23
2022-10-15T17:37:17.080Z,14.60
2022-10-15T17:39:45.672Z,13.23
2022-10-15T17:42:15.820Z,14.55
2022-10-15T17:44:44.361Z,16.63
2022-10-15T17:47:13.432Z,16.63
2022-10-15T17:49:42.593Z,18.27
2022-10-15T17:52:12.878Z,14.57
2022-10-15T17:54:41.523Z,13.33
2022-10-15T17:57:10.008Z,17.10
2022-10-15T17:59:38.487Z,13.70
2022-10-15T18:02:07.103Z,18.33
2022-10-15T18:04:40.972Z,14.17
2022-10-15T18:07:09.534Z,15.43
2022-10-15T18:09:39.391Z,16.48
2022-10-15T18:12:07.932Z,16.83
2022-10-15T18:14:36.914Z,16.83
2022-10-15T18:17:05.972Z,18.77
2022-10-15T18:19:34.469Z,16.23
2022-10-15T18:22:03.004Z,17.42
2022-10-15T18:24:33.058Z,18.03
2022-10-15T18:27:07.609Z,18.88
2022-10-15T18:29:36.492Z,19.10
2022-10-15T18:32:05.226Z,21.53
2022-10-15T18:34:34.616Z,18.17
2022-10-15T18:37:03.129Z,17.63
2022-10-15T18:39:31.598Z,19.53
2022-10-15T18:42:00.296Z,20.80
2022-10-15T18:44:30.137Z,18.05
2022-10-15T18:46:58.614Z,18.27
2022-10-15T18:49:27.139Z,35.23
2022-10-15T18:51:56.161Z,24.17
2022-10-15T18:54:24.673Z,21.67
2022-10-15T18:56:53.822Z,24.87
2022-10-15T18:59:22.458Z,22.77
2022-10-15T19:01:55.215Z,28.93
2022-10-15T19:04:25.206Z,26.33
2022-10-15T19:06:55.185Z,27.50
2022-10-15T19:09:26.417Z,27.20
2022-10-15T19:11:56.697Z,24.17
2022-10-15T19:14:28.084Z,23.27
2022-10-15T19:16:58.333Z,23.27
2022-10-15T19:19:27.415Z,24.70
2022-10-15T19:21:58.716Z,22.98
2022-10-15T19:24:27.404Z,22.47
2022-10-15T19:26:56.007Z,20.73
2022-10-15T19:29:25.050Z,21.40
2022-10-15T19:31:54.713Z,21.77
2022-10-15T19:34:25.828Z,19.30
2022-10-15T19:36:54.340Z,20.53
2022-10-15T19:39:25.309Z,20.73
2022-10-15T19:41:54.176Z,23.00
2022-10-15T19:44:25.661Z,28.40
2022-10-15T19:46:55.675Z,28.00
2022-10-15T19:49:26.021Z,22.23
2022-10-15T19:51:55.674Z,20.27
2022-10-15T19:56:53.753Z,21.00
2022-10-15T19:59:22.251Z,20.77
2022-10-15T20:01:50.814Z,23.50
2022-10-15T20:04:21.007Z,23.20
2022-10-15T20:06:52.831Z,24.25
2022-10-15T20:09:21.412Z,24.30
2022-10-15T20:11:49.986Z,24.87
2022-10-15T20:14:18.451Z,25.03
2022-10-15T20:16:46.990Z,29.88
2022-10-15T20:19:15.614Z,28.93
2022-10-15T20:21:44.219Z,27.50
2022-10-15T20:24:14.112Z,33.37
2022-10-15T20:26:42.666Z,35.70
2022-10-15T20:29:11.121Z,38.33
2022-10-15T20:31:39.659Z,32.80
2022-10-15T20:34:08.138Z,32.13
2022-10-15T20:36:41.213Z,35.93
2022-10-15T20:39:09.815Z,32.83
2022-10-15T20:41:39.704Z,33.90
2022-10-15T20:44:10.635Z,47.60
2022-10-15T20:46:44.919Z,49.37
2022-10-15T20:49:17.795Z,59.50
2022-10-15T20:51:46.435Z,55.47
2022-10-15T20:54:15.961Z,50.17
2022-10-15T20:56:46.290Z,44.47
2022-10-15T20:59:14.943Z,40.40
2022-10-15T21:01:43.756Z,40.80
2022-10-15T21:04:12.327Z,38.90
2022-10-15T21:06:41.193Z,41.70
2022-10-15T21:09:09.657Z,43.47
2022-10-15T21:11:41.513Z,41.20
2022-10-15T21:14:11.799Z,38.40
2022-10-15T21:16:40.778Z,37.37
2022-10-15T21:19:09.856Z,38.57
2022-10-15T21:21:39.203Z,40.30
2022-10-15T21:24:08.022Z,41.77
2022-10-15T21:26:36.545Z,42.03
2022-10-15T21:29:05.247Z,41.43
2022-10-15T21:31:35.116Z,48.90
2022-10-15T21:34:03.772Z,45.67
2022-10-15T21:36:32.245Z,46.87
2022-10-15T21:39:02.671Z,44.77
2022-10-15T21:41:33.826Z,44.83
2022-10-15T21:44:04.127Z,44.97
2022-10-15T21:46:34.198Z,47.17
2022-10-15T21:49:04.053Z,43.63
2022-10-15T21:51:34.342Z,47.23
2022-10-15T21:54:04.624Z,44.63
2022-10-15T21:56:33.721Z,49.27
2022-10-15T21:59:02.708Z,44.10
2022-10-15T22:01:33.309Z,46.23
2022-10-15T22:04:05.255Z,46.47
2022-10-15T22:06:35.068Z,53.60
2022-10-15T22:09:04.741Z,45.07
2022-10-15T22:11:40.516Z,48.73
2022-10-15T22:14:12.437Z,49.37
2022-10-15T22:16:42.489Z,46.80
2022-10-15T22:19:16.109Z,44.57
2022-10-15T22:21:44.913Z,45.97
2022-10-15T22:24:17.031Z,45.30
2022-10-15T22:26:47.595Z,46.57
2022-10-15T22:29:21.008Z,45.33
2022-10-15T22:31:50.276Z,52.27
2022-10-15T22:34:21.748Z,52.90
2022-10-15T22:36:50.231Z,49.80
2022-10-15T22:39:19.539Z,50.50
2022-10-15T22:41:49.348Z,50.70
2022-10-15T22:44:19.986Z,53.40
2022-10-15T22:46:49.656Z,49.63
2022-10-15T22:49:21.688Z,46.37
2022-10-15T22:51:50.978Z,46.73
2022-10-15T22:54:22.643Z,46.10
2022-10-15T22:56:52.101Z,46.37
2022-10-15T22:59:21.187Z,47.83
2022-10-15T23:01:49.896Z,45.40
2022-10-15T23:04:19.911Z,44.70
2022-10-15T23:06:48.446Z,45.07
2022-10-15T23:09:18.015Z,44.43
2022-10-15T23:11:47.008Z,41.90
2022-10-15T23:14:17.098Z,46.43
2022-10-15T23:16:47.451Z,41.03
2022-10-15T23:19:18.210Z,42.30
2022-10-15T23:21:51.961Z,43.67
2022-10-15T23:24:22.524Z,41.53
2022-10-15T23:26:51.879Z,40.80
2022-10-15T23:29:22.832Z,40.73
2022-10-15T23:31:53.277Z,37.77
2022-10-15T23:34:24.221Z,41.77
2022-10-15T23:36:54.892Z,42.97
2022-10-15T23:39:26.784Z,40.37
2022-10-15T23:41:56.574Z,41.10
2022-10-15T23:44:26.805Z,43.70
2022-10-15T23:46:56.024Z,44.03
2022-10-15T23:49:25.114Z,40.97
2022-10-15T23:51:55.531Z,40.57
2022-10-15T23:54:24.288Z,37.50
2022-10-15T23:56:53.178Z,38.37
2022-10-15T23:59:22.400Z,38.30
